Boffa, Guinea
Current Conditions -  °F | °C
As of 2:00 AM on Saturday 20 Dec 2014 (Local Time) from GUCY Reporting Station
Haze Haze  
Wind Chill: 75°   Ceiling: Unl
Heat Index: 75°   Visibility: 3mi
Dew Point: 59°   Wind: 0mph
Humidity: 57%   Direction: NA
Pressure: 29.91"   Gusts: NA
Location:  10.18°N, 14.05°W
Report Text: GUCY 200200Z 00000KT 5000 HZ NSC 24/15 Q1013 NOSIG
Loading
Personal Weather Stations






























Interactive Weather Map New forecast layout! Learn more

10-Day Weather Forecast

Advertisements
Track Severe Weather on mobile